sensor_id;sensor_type;location;lat;lon;timestamp;P1;durP1;ratioP1;P2;durP2;ratioP2
19560;SDS011;9927;47.792;10.616;2024-01-15T04:01:29;11.07;;;9.10;;
19560;SDS011;9927;47.792;10.616;2024-01-15T04:03:56;12.07;;;9.77;;
19560;SDS011;9927;47.792;10.616;2024-01-15T04:06:23;9.80;;;8.80;;
19560;SDS011;9927;47.792;10.616;2024-01-15T04:08:51;10.07;;;8.97;;
19560;SDS011;9927;47.792;10.616;2024-01-15T04:11:18;10.33;;;9.00;;
19560;SDS011;9927;47.792;10.616;2024-01-15T04:13:45;10.17;;;8.83;;
19560;SDS011;9927;47.792;10.616;2024-01-15T04:16:12;11.00;;;8.87;;
19560;SDS011;9927;47.792;10.616;2024-01-15T04:18:40;9.73;;;8.50;;
19560;SDS011;9927;47.792;10.616;2024-01-15T04:21:07;12.17;;;9.30;;
19560;SDS011;9927;47.792;10.616;2024-01-15T04:23:34;10.03;;;8.40;;
19560;SDS011;9927;47.792;10.616;2024-01-15T04:26:02;10.37;;;8.50;;
19560;SDS011;9927;47.792;10.616;2024-01-15T04:28:29;11.80;;;9.07;;
19560;SDS011;9927;47.792;10.616;2024-01-15T04:30:56;9.83;;;8.83;;
19560;SDS011;9927;47.792;10.616;2024-01-15T04:33:24;9.37;;;8.27;;
19560;SDS011;9927;47.792;10.616;2024-01-15T04:35:51;11.43;;;9.23;;
19560;SDS011;9927;47.792;10.616;2024-01-15T04:38:18;9.63;;;8.63;;
19560;SDS011;9927;47.792;10.616;2024-01-15T04:40:45;9.07;;;8.17;;
19560;SDS011;9927;47.792;10.616;2024-01-15T04:43:13;9.83;;;8.43;;
19560;SDS011;9927;47.792;10.616;2024-01-15T04:45:40;9.63;;;8.57;;
19560;SDS011;9927;47.792;10.616;2024-01-15T04:48:07;9.17;;;7.83;;
19560;SDS011;9927;47.792;10.616;2024-01-15T04:50:35;8.93;;;8.03;;
19560;SDS011;9927;47.792;10.616;2024-01-15T04:53:02;9.63;;;8.50;;
19560;SDS011;9927;47.792;10.616;2024-01-15T04:55:29;10.53;;;8.83;;
19560;SDS011;9927;47.792;10.616;2024-01-15T04:57:56;9.93;;;8.93;;
19560;SDS011;9927;47.792;10.616;2024-01-15T05:00:24;9.37;;;8.37;;
19560;SDS011;9927;47.792;10.616;2024-01-15T05:02:51;9.40;;;8.50;;
19560;SDS011;9927;47.792;10.616;2024-01-15T05:05:18;9.63;;;8.63;;
19560;SDS011;9927;47.792;10.616;2024-01-15T05:07:45;10.97;;;8.70;;
19560;SDS011;9927;47.792;10.616;2024-01-15T05:10:13;11.03;;;8.47;;
19560;SDS011;9927;47.792;10.616;2024-01-15T05:12:40;9.17;;;8.20;;
19560;SDS011;9927;47.792;10.616;2024-01-15T05:15:07;9.90;;;8.77;;
19560;SDS011;9927;47.792;10.616;2024-01-15T05:17:36;11.37;;;9.67;;
19560;SDS011;9927;47.792;10.616;2024-01-15T05:20:03;10.27;;;8.80;;
19560;SDS011;9927;47.792;10.616;2024-01-15T05:22:31;10.17;;;9.10;;
19560;SDS011;9927;47.792;10.616;2024-01-15T05:24:59;9.77;;;8.73;;
19560;SDS011;9927;47.792;10.616;2024-01-15T05:27:26;9.67;;;8.67;;
19560;SDS011;9927;47.792;10.616;2024-01-15T05:29:53;9.67;;;8.57;;
19560;SDS011;9927;47.792;10.616;2024-01-15T05:32:21;9.57;;;8.57;;
19560;SDS011;9927;47.792;10.616;2024-01-15T05:34:48;10.50;;;8.80;;
19560;SDS011;9927;47.792;10.616;2024-01-15T05:37:15;11.87;;;9.27;;
19560;SDS011;9927;47.792;10.616;2024-01-15T05:39:43;10.43;;;9.03;;
19560;SDS011;9927;47.792;10.616;2024-01-15T05:42:10;11.67;;;8.70;;
19560;SDS011;9927;47.792;10.616;2024-01-15T05:44:38;10.67;;;9.20;;
19560;SDS011;9927;47.792;10.616;2024-01-15T05:47:05;9.80;;;8.67;;
19560;SDS011;9927;47.792;10.616;2024-01-15T05:49:32;9.50;;;8.60;;
19560;SDS011;9927;47.792;10.616;2024-01-15T05:52:00;9.33;;;8.43;;
19560;SDS011;9927;47.792;10.616;2024-01-15T05:54:27;10.40;;;8.83;;
19560;SDS011;9927;47.792;10.616;2024-01-15T05:56:54;10.10;;;8.70;;
19560;SDS011;9927;47.792;10.616;2024-01-15T05:59:22;8.90;;;8.00;;
19560;SDS011;9927;47.792;10.616;2024-01-15T06:01:49;10.40;;;8.90;;
19560;SDS011;9927;47.792;10.616;2024-01-15T06:04:17;10.20;;;9.03;;
19560;SDS011;9927;47.792;10.616;2024-01-15T06:06:44;11.07;;;8.70;;
19560;SDS011;9927;47.792;10.616;2024-01-15T06:09:12;10.00;;;9.00;;
19560;SDS011;9927;47.792;10.616;2024-01-15T06:11:39;10.10;;;8.83;;
19560;SDS011;9927;47.792;10.616;2024-01-15T06:14:06;10.67;;;8.83;;
19560;SDS011;9927;47.792;10.616;2024-01-15T06:16:33;12.00;;;9.20;;
19560;SDS011;9927;47.792;10.616;2024-01-15T06:19:01;9.67;;;8.53;;
19560;SDS011;9927;47.792;10.616;2024-01-15T06:21:28;9.30;;;8.40;;
19560;SDS011;9927;47.792;10.616;2024-01-15T06:23:55;10.93;;;9.33;;
19560;SDS011;9927;47.792;10.616;2024-01-15T06:26:23;10.63;;;9.00;;
19560;SDS011;9927;47.792;10.616;2024-01-15T06:28:50;9.93;;;8.67;;
19560;SDS011;9927;47.792;10.616;2024-01-15T06:31:17;9.57;;;8.50;;
19560;SDS011;9927;47.792;10.616;2024-01-15T06:33:45;9.60;;;8.60;;
19560;SDS011;9927;47.792;10.616;2024-01-15T06:36:15;10.60;;;8.87;;
19560;SDS011;9927;47.792;10.616;2024-01-15T06:38:43;11.60;;;8.70;;
19560;SDS011;9927;47.792;10.616;2024-01-15T06:41:11;12.20;;;10.03;;
19560;SDS011;9927;47.792;10.616;2024-01-15T06:43:38;13.30;;;9.80;;
19560;SDS011;9927;47.792;10.616;2024-01-15T06:46:05;12.30;;;9.77;;
19560;SDS011;9927;47.792;10.616;2024-01-15T06:48:34;10.47;;;9.17;;
19560;SDS011;9927;47.792;10.616;2024-01-15T06:51:02;11.50;;;10.07;;
19560;SDS011;9927;47.792;10.616;2024-01-15T06:53:29;11.17;;;9.70;;
19560;SDS011;9927;47.792;10.616;2024-01-15T06:55:57;9.93;;;8.93;;
19560;SDS011;9927;47.792;10.616;2024-01-15T06:58:24;10.37;;;8.40;;
19560;SDS011;9927;47.792;10.616;2024-01-15T07:00:51;9.53;;;8.53;;
19560;SDS011;9927;47.792;10.616;2024-01-15T07:03:19;9.43;;;8.37;;
19560;SDS011;9927;47.792;10.616;2024-01-15T07:05:46;9.03;;;8.10;;
19560;SDS011;9927;47.792;10.616;2024-01-15T07:08:13;9.47;;;8.47;;
19560;SDS011;9927;47.792;10.616;2024-01-15T07:10:41;11.47;;;8.60;;
19560;SDS011;9927;47.792;10.616;2024-01-15T07:13:08;9.67;;;8.60;;
19560;SDS011;9927;47.792;10.616;2024-01-15T07:15:36;10.97;;;8.87;;
19560;SDS011;9927;47.792;10.616;2024-01-15T07:18:03;9.43;;;8.43;;
19560;SDS011;9927;47.792;10.616;2024-01-15T07:20:30;11.13;;;8.97;;
19560;SDS011;9927;47.792;10.616;2024-01-15T07:22:58;11.10;;;9.40;;
19560;SDS011;9927;47.792;10.616;2024-01-15T07:25:25;12.07;;;9.47;;
19560;SDS011;9927;47.792;10.616;2024-01-15T07:27:53;13.03;;;9.90;;
19560;SDS011;9927;47.792;10.616;2024-01-15T07:30:21;14.07;;;10.07;;
19560;SDS011;9927;47.792;10.616;2024-01-15T07:32:48;13.43;;;10.07;;
19560;SDS011;9927;47.792;10.616;2024-01-15T07:35:16;11.50;;;9.73;;
19560;SDS011;9927;47.792;10.616;2024-01-15T07:37:43;12.43;;;9.70;;
19560;SDS011;9927;47.792;10.616;2024-01-15T07:40:11;13.53;;;10.10;;
19560;SDS011;9927;47.792;10.616;2024-01-15T07:42:38;12.93;;;9.90;;
19560;SDS011;9927;47.792;10.616;2024-01-15T07:45:06;12.37;;;9.67;;
19560;SDS011;9927;47.792;10.616;2024-01-15T07:47:34;11.20;;;8.83;;
19560;SDS011;9927;47.792;10.616;2024-01-15T07:50:01;11.13;;;9.77;;
19560;SDS011;9927;47.792;10.616;2024-01-15T07:52:32;11.77;;;9.17;;
19560;SDS011;9927;47.792;10.616;2024-01-15T07:54:59;11.10;;;9.20;;
19560;SDS011;9927;47.792;10.616;2024-01-15T07:57:27;10.63;;;9.40;;
19560;SDS011;9927;47.792;10.616;2024-01-15T07:59:54;11.10;;;8.83;;
19560;SDS011;9927;47.792;10.616;2024-01-15T08:02:21;11.40;;;9.03;;
19560;SDS011;9927;47.792;10.616;2024-01-15T08:04:49;10.03;;;8.40;;
19560;SDS011;9927;47.792;10.616;2024-01-15T08:07:20;9.80;;;8.20;;
19560;SDS011;9927;47.792;10.616;2024-01-15T08:09:47;8.27;;;7.53;;
19560;SDS011;9927;47.792;10.616;2024-01-15T08:12:15;10.90;;;8.33;;
19560;SDS011;9927;47.792;10.616;2024-01-15T08:14:43;8.73;;;7.87;;
19560;SDS011;9927;47.792;10.616;2024-01-15T08:17:10;12.13;;;7.90;;
19560;SDS011;9927;47.792;10.616;2024-01-15T08:19:37;8.00;;;7.20;;
19560;SDS011;9927;47.792;10.616;2024-01-15T08:22:08;8.63;;;7.43;;
19560;SDS011;9927;47.792;10.616;2024-01-15T08:24:36;8.70;;;7.80;;
19560;SDS011;9927;47.792;10.616;2024-01-15T08:27:04;8.10;;;7.40;;
19560;SDS011;9927;47.792;10.616;2024-01-15T08:29:31;8.73;;;7.40;;
19560;SDS011;9927;47.792;10.616;2024-01-15T08:32:00;7.53;;;6.83;;
19560;SDS011;9927;47.792;10.616;2024-01-15T08:34:28;8.03;;;7.23;;
19560;SDS011;9927;47.792;10.616;2024-01-15T08:36:57;8.73;;;7.83;;
19560;SDS011;9927;47.792;10.616;2024-01-15T08:39:25;7.90;;;7.10;;
19560;SDS011;9927;47.792;10.616;2024-01-15T08:41:52;8.47;;;7.60;;
19560;SDS011;9927;47.792;10.616;2024-01-15T08:44:19;8.53;;;7.73;;
19560;SDS011;9927;47.792;10.616;2024-01-15T08:46:46;8.00;;;7.20;;
19560;SDS011;9927;47.792;10.616;2024-01-15T08:49:14;8.00;;;7.20;;
19560;SDS011;9927;47.792;10.616;2024-01-15T08:51:41;7.77;;;7.07;;
19560;SDS011;9927;47.792;10.616;2024-01-15T08:54:08;8.47;;;7.10;;
19560;SDS011;9927;47.792;10.616;2024-01-15T08:56:36;8.53;;;7.27;;
19560;SDS011;9927;47.792;10.616;2024-01-15T08:59:03;7.93;;;7.17;;
19560;SDS011;9927;47.792;10.616;2024-01-15T09:01:30;8.63;;;7.50;;
19560;SDS011;9927;47.792;10.616;2024-01-15T09:03:58;8.40;;;7.50;;
19560;SDS011;9927;47.792;10.616;2024-01-15T09:06:25;9.60;;;7.80;;
19560;SDS011;9927;47.792;10.616;2024-01-15T09:08:53;8.83;;;7.93;;
19560;SDS011;9927;47.792;10.616;2024-01-15T09:11:20;8.33;;;7.50;;
19560;SDS011;9927;47.792;10.616;2024-01-15T09:13:47;8.70;;;7.80;;
19560;SDS011;9927;47.792;10.616;2024-01-15T09:16:14;8.40;;;7.60;;
19560;SDS011;9927;47.792;10.616;2024-01-15T09:18:42;9.53;;;8.37;;
19560;SDS011;9927;47.792;10.616;2024-01-15T09:21:09;8.53;;;7.73;;
19560;SDS011;9927;47.792;10.616;2024-01-15T09:23:37;8.93;;;7.37;;
19560;SDS011;9927;47.792;10.616;2024-01-15T09:26:06;9.03;;;8.10;;
19560;SDS011;9927;47.792;10.616;2024-01-15T09:28:35;9.37;;;8.27;;
19560;SDS011;9927;47.792;10.616;2024-01-15T09:31:03;8.70;;;7.80;;
19560;SDS011;9927;47.792;10.616;2024-01-15T09:33:30;9.47;;;8.47;;
19560;SDS011;9927;47.792;10.616;2024-01-15T09:36:01;9.97;;;8.70;;
19560;SDS011;9927;47.792;10.616;2024-01-15T09:38:30;9.20;;;8.30;;
19560;SDS011;9927;47.792;10.616;2024-01-15T09:40:58;8.87;;;8.07;;
19560;SDS011;9927;47.792;10.616;2024-01-15T09:43:25;8.80;;;7.83;;
19560;SDS011;9927;47.792;10.616;2024-01-15T09:45:53;8.70;;;7.80;;
19560;SDS011;9927;47.792;10.616;2024-01-15T09:48:21;8.10;;;7.40;;
19560;SDS011;9927;47.792;10.616;2024-01-15T09:50:49;8.60;;;7.70;;
19560;SDS011;9927;47.792;10.616;2024-01-15T09:53:17;8.87;;;7.90;;
19560;SDS011;9927;47.792;10.616;2024-01-15T09:55:45;12.27;;;10.10;;
19560;SDS011;9927;47.792;10.616;2024-01-15T09:58:13;8.00;;;7.30;;
19560;SDS011;9927;47.792;10.616;2024-01-15T10:00:42;8.37;;;7.50;;
19560;SDS011;9927;47.792;10.616;2024-01-15T10:03:11;8.27;;;7.57;;
19560;SDS011;9927;47.792;10.616;2024-01-15T10:05:39;8.37;;;7.57;;
19560;SDS011;9927;47.792;10.616;2024-01-15T10:08:07;8.43;;;7.63;;
19560;SDS011;9927;47.792;10.616;2024-01-15T10:10:35;8.07;;;7.30;;
19560;SDS011;9927;47.792;10.616;2024-01-15T10:13:03;7.83;;;7.03;;
19560;SDS011;9927;47.792;10.616;2024-01-15T10:15:33;7.67;;;6.97;;
19560;SDS011;9927;47.792;10.616;2024-01-15T10:18:03;8.17;;;7.37;;
19560;SDS011;9927;47.792;10.616;2024-01-15T10:20:34;9.37;;;7.17;;
19560;SDS011;9927;47.792;10.616;2024-01-15T10:23:01;8.90;;;7.37;;
19560;SDS011;9927;47.792;10.616;2024-01-15T10:25:29;10.47;;;7.70;;
19560;SDS011;9927;47.792;10.616;2024-01-15T10:27:58;7.93;;;7.13;;
19560;SDS011;9927;47.792;10.616;2024-01-15T10:30:27;8.53;;;7.40;;
19560;SDS011;9927;47.792;10.616;2024-01-15T10:32:58;7.97;;;7.27;;
19560;SDS011;9927;47.792;10.616;2024-01-15T10:35:30;7.80;;;7.10;;
19560;SDS011;9927;47.792;10.616;2024-01-15T10:38:01;8.30;;;7.40;;
19560;SDS011;9927;47.792;10.616;2024-01-15T10:40:29;8.57;;;7.57;;
19560;SDS011;9927;47.792;10.616;2024-01-15T10:42:57;7.57;;;6.87;;
19560;SDS011;9927;47.792;10.616;2024-01-15T10:45:25;8.40;;;7.13;;
19560;SDS011;9927;47.792;10.616;2024-01-15T10:47:53;8.17;;;7.33;;
19560;SDS011;9927;47.792;10.616;2024-01-15T10:50:21;8.63;;;7.47;;
19560;SDS011;9927;47.792;10.616;2024-01-15T10:52:51;8.43;;;7.53;;
19560;SDS011;9927;47.792;10.616;2024-01-15T10:55:19;9.57;;;8.13;;
19560;SDS011;9927;47.792;10.616;2024-01-15T10:57:47;8.20;;;7.43;;
19560;SDS011;9927;47.792;10.616;2024-01-15T11:00:16;7.70;;;6.70;;
19560;SDS011;9927;47.792;10.616;2024-01-15T11:02:44;7.10;;;6.40;;
19560;SDS011;9927;47.792;10.616;2024-01-15T11:05:12;7.30;;;6.70;;
19560;SDS011;9927;47.792;10.616;2024-01-15T11:07:39;6.73;;;6.10;;
19560;SDS011;9927;47.792;10.616;2024-01-15T11:10:08;7.03;;;6.43;;
19560;SDS011;9927;47.792;10.616;2024-01-15T11:13:04;9.50;;;6.80;;
19560;SDS011;9927;47.792;10.616;2024-01-15T11:15:54;7.07;;;6.47;;
19560;SDS011;9927;47.792;10.616;2024-01-15T11:23:57;8.00;;;7.20;;
19560;SDS011;9927;47.792;10.616;2024-01-15T11:32:00;8.20;;;7.40;;
19560;SDS011;9927;47.792;10.616;2024-01-15T11:37:26;14.73;;;10.60;;
19560;SDS011;9927;47.792;10.616;2024-01-15T11:39:56;15.43;;;11.50;;
19560;SDS011;9927;47.792;10.616;2024-01-15T11:42:30;8.13;;;7.40;;
19560;SDS011;9927;47.792;10.616;2024-01-15T11:44:57;8.03;;;7.33;;
19560;SDS011;9927;47.792;10.616;2024-01-15T11:47:33;7.93;;;7.23;;
19560;SDS011;9927;47.792;10.616;2024-01-15T11:50:13;7.97;;;6.47;;
19560;SDS011;9927;47.792;10.616;2024-01-15T11:52:41;7.27;;;6.67;;
19560;SDS011;9927;47.792;10.616;2024-01-15T11:57:57;7.20;;;6.50;;
19560;SDS011;9927;47.792;10.616;2024-01-15T12:00:27;8.00;;;6.97;;
19560;SDS011;9927;47.792;10.616;2024-01-15T12:02:55;7.60;;;6.90;;
19560;SDS011;9927;47.792;10.616;2024-01-15T12:05:26;7.23;;;6.63;;
19560;SDS011;9927;47.792;10.616;2024-01-15T12:07:53;7.20;;;6.63;;
19560;SDS011;9927;47.792;10.616;2024-01-15T12:10:20;7.57;;;6.87;;
19560;SDS011;9927;47.792;10.616;2024-01-15T12:15:18;7.30;;;6.70;;
19560;SDS011;9927;47.792;10.616;2024-01-15T12:17:45;7.03;;;6.43;;
19560;SDS011;9927;47.792;10.616;2024-01-15T12:20:14;6.73;;;6.13;;
19560;SDS011;9927;47.792;10.616;2024-01-15T12:22:42;7.30;;;6.40;;
19560;SDS011;9927;47.792;10.616;2024-01-15T12:25:26;7.20;;;6.60;;
19560;SDS011;9927;47.792;10.616;2024-01-15T12:27:54;6.87;;;6.33;;
19560;SDS011;9927;47.792;10.616;2024-01-15T12:30:21;6.00;;;5.50;;
19560;SDS011;9927;47.792;10.616;2024-01-15T12:32:49;6.43;;;5.90;;
19560;SDS011;9927;47.792;10.616;2024-01-15T12:35:17;5.93;;;5.50;;
19560;SDS011;9927;47.792;10.616;2024-01-15T12:37:44;6.90;;;6.40;;
19560;SDS011;9927;47.792;10.616;2024-01-15T12:40:18;6.60;;;6.00;;
19560;SDS011;9927;47.792;10.616;2024-01-15T12:42:46;6.60;;;6.10;;
19560;SDS011;9927;47.792;10.616;2024-01-15T12:45:14;6.83;;;6.30;;
19560;SDS011;9927;47.792;10.616;2024-01-15T12:47:42;5.97;;;5.60;;
19560;SDS011;9927;47.792;10.616;2024-01-15T12:50:10;6.50;;;6.00;;
19560;SDS011;9927;47.792;10.616;2024-01-15T12:52:46;6.23;;;5.80;;
19560;SDS011;9927;47.792;10.616;2024-01-15T12:55:13;7.27;;;6.33;;
19560;SDS011;9927;47.792;10.616;2024-01-15T12:57:42;6.33;;;5.83;;
19560;SDS011;9927;47.792;10.616;2024-01-15T13:00:09;6.60;;;5.90;;
19560;SDS011;9927;47.792;10.616;2024-01-15T13:02:42;6.70;;;6.10;;
19560;SDS011;9927;47.792;10.616;2024-01-15T13:05:11;6.00;;;5.50;;
19560;SDS011;9927;47.792;10.616;2024-01-15T13:07:41;6.07;;;5.60;;
19560;SDS011;9927;47.792;10.616;2024-01-15T13:10:10;5.53;;;5.13;;
19560;SDS011;9927;47.792;10.616;2024-01-15T13:12:38;6.00;;;5.60;;
19560;SDS011;9927;47.792;10.616;2024-01-15T13:15:05;6.30;;;5.80;;
19560;SDS011;9927;47.792;10.616;2024-01-15T13:17:39;5.53;;;5.23;;
19560;SDS011;9927;47.792;10.616;2024-01-15T13:20:07;5.50;;;5.20;;
19560;SDS011;9927;47.792;10.616;2024-01-15T13:22:35;6.10;;;5.70;;
19560;SDS011;9927;47.792;10.616;2024-01-15T13:25:06;6.13;;;5.67;;
19560;SDS011;9927;47.792;10.616;2024-01-15T13:27:34;6.57;;;5.83;;
19560;SDS011;9927;47.792;10.616;2024-01-15T13:30:03;6.03;;;5.60;;
19560;SDS011;9927;47.792;10.616;2024-01-15T13:32:31;6.60;;;6.20;;
19560;SDS011;9927;47.792;10.616;2024-01-15T13:34:59;6.40;;;5.90;;
19560;SDS011;9927;47.792;10.616;2024-01-15T13:37:27;5.60;;;5.30;;
19560;SDS011;9927;47.792;10.616;2024-01-15T13:39:54;5.30;;;5.00;;
19560;SDS011;9927;47.792;10.616;2024-01-15T13:42:23;5.40;;;5.10;;
19560;SDS011;9927;47.792;10.616;2024-01-15T13:44:50;5.87;;;5.57;;
19560;SDS011;9927;47.792;10.616;2024-01-15T13:47:18;6.03;;;5.63;;
19560;SDS011;9927;47.792;10.616;2024-01-15T13:49:45;6.50;;;6.00;;
19560;SDS011;9927;47.792;10.616;2024-01-15T13:52:13;7.50;;;6.90;;
19560;SDS011;9927;47.792;10.616;2024-01-15T13:54:40;6.53;;;6.03;;
19560;SDS011;9927;47.792;10.616;2024-01-15T13:57:16;6.10;;;5.70;;
19560;SDS011;9927;47.792;10.616;2024-01-15T13:59:45;6.00;;;5.60;;
19560;SDS011;9927;47.792;10.616;2024-01-15T14:02:13;6.20;;;5.80;;
19560;SDS011;9927;47.792;10.616;2024-01-15T14:04:47;5.80;;;5.50;;
19560;SDS011;9927;47.792;10.616;2024-01-15T14:07:14;6.00;;;5.60;;
19560;SDS011;9927;47.792;10.616;2024-01-15T14:09:42;6.40;;;6.00;;
19560;SDS011;9927;47.792;10.616;2024-01-15T14:12:10;6.03;;;5.70;;
19560;SDS011;9927;47.792;10.616;2024-01-15T14:14:38;6.27;;;5.87;;
19560;SDS011;9927;47.792;10.616;2024-01-15T14:17:06;5.80;;;5.50;;
19560;SDS011;9927;47.792;10.616;2024-01-15T14:19:34;6.53;;;6.07;;
19560;SDS011;9927;47.792;10.616;2024-01-15T14:22:03;6.00;;;5.60;;
19560;SDS011;9927;47.792;10.616;2024-01-15T14:24:30;6.53;;;6.10;;
19560;SDS011;9927;47.792;10.616;2024-01-15T14:26:57;7.50;;;6.80;;
19560;SDS011;9927;47.792;10.616;2024-01-15T14:29:25;7.57;;;6.90;;
19560;SDS011;9927;47.792;10.616;2024-01-15T14:31:53;7.10;;;6.47;;
19560;SDS011;9927;47.792;10.616;2024-01-15T14:34:22;7.27;;;6.77;;
19560;SDS011;9927;47.792;10.616;2024-01-15T14:36:51;6.70;;;6.10;;
19560;SDS011;9927;47.792;10.616;2024-01-15T14:39:21;6.60;;;6.20;;
19560;SDS011;9927;47.792;10.616;2024-01-15T14:41:49;6.53;;;6.00;;
19560;SDS011;9927;47.792;10.616;2024-01-15T14:44:16;6.27;;;5.87;;
19560;SDS011;9927;47.792;10.616;2024-01-15T14:46:44;6.70;;;6.30;;
19560;SDS011;9927;47.792;10.616;2024-01-15T14:49:13;7.40;;;6.70;;
19560;SDS011;9927;47.792;10.616;2024-01-15T14:51:41;6.67;;;6.17;;
19560;SDS011;9927;47.792;10.616;2024-01-15T14:54:09;6.90;;;6.37;;
19560;SDS011;9927;47.792;10.616;2024-01-15T14:56:36;7.13;;;6.63;;
19560;SDS011;9927;47.792;10.616;2024-01-15T14:59:03;7.30;;;6.77;;
19560;SDS011;9927;47.792;10.616;2024-01-15T15:01:31;7.70;;;7.10;;
19560;SDS011;9927;47.792;10.616;2024-01-15T15:03:58;7.97;;;7.13;;
19560;SDS011;9927;47.792;10.616;2024-01-15T15:06:26;6.90;;;6.30;;
19560;SDS011;9927;47.792;10.616;2024-01-15T15:08:54;9.37;;;7.07;;
19560;SDS011;9927;47.792;10.616;2024-01-15T15:11:27;7.70;;;7.00;;
19560;SDS011;9927;47.792;10.616;2024-01-15T15:13:55;6.90;;;6.40;;
19560;SDS011;9927;47.792;10.616;2024-01-15T15:16:22;6.90;;;6.40;;
19560;SDS011;9927;47.792;10.616;2024-01-15T15:18:49;7.30;;;6.70;;
19560;SDS011;9927;47.792;10.616;2024-01-15T15:21:17;7.13;;;6.53;;
19560;SDS011;9927;47.792;10.616;2024-01-15T15:23:44;8.20;;;6.67;;
19560;SDS011;9927;47.792;10.616;2024-01-15T15:26:14;7.73;;;7.13;;
19560;SDS011;9927;47.792;10.616;2024-01-15T15:28:41;7.20;;;6.60;;
19560;SDS011;9927;47.792;10.616;2024-01-15T15:31:09;9.70;;;8.73;;
19560;SDS011;9927;47.792;10.616;2024-01-15T15:33:38;8.00;;;7.40;;
19560;SDS011;9927;47.792;10.616;2024-01-15T15:36:06;8.10;;;7.40;;
19560;SDS011;9927;47.792;10.616;2024-01-15T15:38:33;7.80;;;7.20;;
19560;SDS011;9927;47.792;10.616;2024-01-15T15:41:01;7.47;;;6.87;;
19560;SDS011;9927;47.792;10.616;2024-01-15T15:43:28;8.00;;;7.27;;
19560;SDS011;9927;47.792;10.616;2024-01-15T15:45:56;7.77;;;7.07;;
19560;SDS011;9927;47.792;10.616;2024-01-15T15:48:26;7.70;;;7.00;;
19560;SDS011;9927;47.792;10.616;2024-01-15T15:50:54;7.40;;;6.80;;
19560;SDS011;9927;47.792;10.616;2024-01-15T15:53:26;8.00;;;7.20;;
19560;SDS011;9927;47.792;10.616;2024-01-15T15:55:53;7.57;;;6.87;;
19560;SDS011;9927;47.792;10.616;2024-01-15T15:58:21;7.47;;;6.77;;
19560;SDS011;9927;47.792;10.616;2024-01-15T16:00:48;7.53;;;6.83;;
19560;SDS011;9927;47.792;10.616;2024-01-15T16:03:15;8.10;;;7.40;;
19560;SDS011;9927;47.792;10.616;2024-01-15T16:05:43;7.83;;;7.13;;
19560;SDS011;9927;47.792;10.616;2024-01-15T16:08:19;8.17;;;7.37;;
19560;SDS011;9927;47.792;10.616;2024-01-15T16:10:47;7.73;;;7.03;;
19560;SDS011;9927;47.792;10.616;2024-01-15T16:13:15;8.17;;;7.47;;
19560;SDS011;9927;47.792;10.616;2024-01-15T16:15:43;8.50;;;7.80;;
19560;SDS011;9927;47.792;10.616;2024-01-15T16:18:10;8.53;;;7.67;;
19560;SDS011;9927;47.792;10.616;2024-01-15T16:20:57;9.33;;;8.23;;
19560;SDS011;9927;47.792;10.616;2024-01-15T16:23:44;7.63;;;7.00;;
19560;SDS011;9927;47.792;10.616;2024-01-15T16:26:31;9.00;;;8.10;;
19560;SDS011;9927;47.792;10.616;2024-01-15T16:28:59;9.87;;;8.77;;
19560;SDS011;9927;47.792;10.616;2024-01-15T16:31:30;8.87;;;8.03;;
19560;SDS011;9927;47.792;10.616;2024-01-15T16:33:58;9.30;;;8.30;;
19560;SDS011;9927;47.792;10.616;2024-01-15T16:36:31;17.53;;;8.50;;
19560;SDS011;9927;47.792;10.616;2024-01-15T16:39:00;9.30;;;8.40;;
19560;SDS011;9927;47.792;10.616;2024-01-15T16:41:28;20.20;;;8.67;;
19560;SDS011;9927;47.792;10.616;2024-01-15T16:43:56;8.57;;;7.83;;
19560;SDS011;9927;47.792;10.616;2024-01-15T16:46:24;9.00;;;8.10;;
19560;SDS011;9927;47.792;10.616;2024-01-15T16:48:51;9.97;;;8.50;;
19560;SDS011;9927;47.792;10.616;2024-01-15T16:51:19;9.87;;;8.60;;
19560;SDS011;9927;47.792;10.616;2024-01-15T16:53:46;9.80;;;8.60;;
19560;SDS011;9927;47.792;10.616;2024-01-15T16:56:13;9.97;;;8.93;;
19560;SDS011;9927;47.792;10.616;2024-01-15T16:58:41;10.73;;;8.90;;
19560;SDS011;9927;47.792;10.616;2024-01-15T17:01:08;9.27;;;8.37;;
19560;SDS011;9927;47.792;10.616;2024-01-15T17:03:35;9.67;;;8.40;;
19560;SDS011;9927;47.792;10.616;2024-01-15T17:06:03;10.57;;;9.00;;
19560;SDS011;9927;47.792;10.616;2024-01-15T17:08:31;10.37;;;8.87;;
19560;SDS011;9927;47.792;10.616;2024-01-15T17:10:58;10.63;;;9.40;;
19560;SDS011;9927;47.792;10.616;2024-01-15T17:13:28;10.30;;;9.03;;
19560;SDS011;9927;47.792;10.616;2024-01-15T17:15:55;11.63;;;9.50;;
19560;SDS011;9927;47.792;10.616;2024-01-15T17:18:23;9.83;;;8.83;;
19560;SDS011;9927;47.792;10.616;2024-01-15T17:20:50;9.87;;;8.83;;
19560;SDS011;9927;47.792;10.616;2024-01-15T17:23:17;10.53;;;9.07;;
19560;SDS011;9927;47.792;10.616;2024-01-15T17:25:45;13.77;;;9.40;;
19560;SDS011;9927;47.792;10.616;2024-01-15T17:28:13;9.90;;;8.90;;
19560;SDS011;9927;47.792;10.616;2024-01-15T17:30:40;10.93;;;9.50;;
19560;SDS011;9927;47.792;10.616;2024-01-15T17:33:07;10.47;;;9.37;;
19560;SDS011;9927;47.792;10.616;2024-01-15T17:35:34;9.27;;;7.90;;
19560;SDS011;9927;47.792;10.616;2024-01-15T17:38:02;9.13;;;8.20;;
19560;SDS011;9927;47.792;10.616;2024-01-15T17:40:29;10.17;;;8.10;;
19560;SDS011;9927;47.792;10.616;2024-01-15T17:42:56;9.10;;;8.13;;
19560;SDS011;9927;47.792;10.616;2024-01-15T17:45:24;9.10;;;8.10;;
19560;SDS011;9927;47.792;10.616;2024-01-15T17:47:53;8.93;;;7.70;;
19560;SDS011;9927;47.792;10.616;2024-01-15T17:50:21;9.87;;;8.13;;
19560;SDS011;9927;47.792;10.616;2024-01-15T17:52:48;8.93;;;8.03;;
19560;SDS011;9927;47.792;10.616;2024-01-15T17:55:15;8.87;;;7.90;;
19560;SDS011;9927;47.792;10.616;2024-01-15T17:57:43;8.53;;;7.70;;
19560;SDS011;9927;47.792;10.616;2024-01-15T18:00:11;9.47;;;8.13;;
19560;SDS011;9927;47.792;10.616;2024-01-15T18:02:41;9.57;;;8.57;;
19560;SDS011;9927;47.792;10.616;2024-01-15T18:05:09;9.30;;;8.23;;
19560;SDS011;9927;47.792;10.616;2024-01-15T18:07:37;9.23;;;8.33;;
19560;SDS011;9927;47.792;10.616;2024-01-15T18:10:04;8.93;;;8.03;;
19560;SDS011;9927;47.792;10.616;2024-01-15T18:12:33;8.63;;;7.83;;
19560;SDS011;9927;47.792;10.616;2024-01-15T18:15:00;8.43;;;7.63;;
19560;SDS011;9927;47.792;10.616;2024-01-15T18:17:28;8.70;;;7.80;;
19560;SDS011;9927;47.792;10.616;2024-01-15T18:19:56;8.17;;;7.37;;
19560;SDS011;9927;47.792;10.616;2024-01-15T18:22:23;8.13;;;7.40;;
19560;SDS011;9927;47.792;10.616;2024-01-15T18:24:50;8.70;;;7.80;;
19560;SDS011;9927;47.792;10.616;2024-01-15T18:27:17;8.50;;;7.70;;
19560;SDS011;9927;47.792;10.616;2024-01-15T18:29:45;8.50;;;7.60;;
19560;SDS011;9927;47.792;10.616;2024-01-15T18:32:12;9.37;;;8.37;;
19560;SDS011;9927;47.792;10.616;2024-01-15T18:34:39;9.07;;;8.23;;
19560;SDS011;9927;47.792;10.616;2024-01-15T18:37:09;9.57;;;8.37;;
19560;SDS011;9927;47.792;10.616;2024-01-15T18:39:36;8.90;;;8.00;;
19560;SDS011;9927;47.792;10.616;2024-01-15T18:42:04;8.50;;;7.70;;
19560;SDS011;9927;47.792;10.616;2024-01-15T18:44:31;8.53;;;7.83;;
19560;SDS011;9927;47.792;10.616;2024-01-15T18:46:59;8.80;;;8.00;;
19560;SDS011;9927;47.792;10.616;2024-01-15T18:49:26;8.37;;;7.57;;
19560;SDS011;9927;47.792;10.616;2024-01-15T18:51:54;9.27;;;8.30;;
19560;SDS011;9927;47.792;10.616;2024-01-15T18:54:23;9.57;;;8.57;;
19560;SDS011;9927;47.792;10.616;2024-01-15T18:56:50;8.87;;;7.97;;
19560;SDS011;9927;47.792;10.616;2024-01-15T18:59:18;10.83;;;8.20;;
19560;SDS011;9927;47.792;10.616;2024-01-15T19:01:46;9.37;;;7.90;;
19560;SDS011;9927;47.792;10.616;2024-01-15T19:04:13;9.63;;;8.67;;
19560;SDS011;9927;47.792;10.616;2024-01-15T19:06:42;8.67;;;7.87;;
19560;SDS011;9927;47.792;10.616;2024-01-15T19:09:13;8.60;;;7.80;;
19560;SDS011;9927;47.792;10.616;2024-01-15T19:11:40;9.77;;;7.90;;